Terminal Aerodrome Forecast
Issued by NWS

Home | Current Version | Previous Version | Text Only | Print | Product List | Glossary Off
Versions: 1 2 3 4 5 6 7 8 9 10 11 12 13 14

000
FTUS43 KGRB 190500
TAFMTW
TAF
KMTW 190530Z 1906/2006 30005KT P6SM BKN250
     FM190900 30004KT P6SM SCT250
     FM191500 32003KT P6SM SCT200
     FM192200 24002KT P6SM SCT020 BKN150
     FM200200 22002KT P6SM SCT015 BKN120=

USA.gov is the U.S. government's official web portal to all federal, state and local government web resources and services.